Time;durP1;ratioP1;P1;durP2;ratioP2;P2;SDS_P1;SDS_P2;PMS_P1;PMS_P2;Temp;Humidity;BMP_temperature;BMP_pressure;BME280_temperature;BME280_humidity;BME280_pressure;Samples;Min_cycle;Max_cycle;Signal;HPM_P1;HPM_P2
2022/06/27 00:00:17;;;;;;;6.70;6.03;;;18.10;99.90;;;;;;5040616;28;20032;-89
2022/06/27 00:02:44;;;;;;;6.57;5.88;;;18.10;99.90;;;;;;5028552;28;20051;-86
2022/06/27 00:05:11;;;;;;;6.03;4.75;;;18.10;99.90;;;;;;5036217;28;20075;-86
2022/06/27 00:07:37;;;;;;;6.00;5.22;;;18.10;99.90;;;;;;5027901;28;20667;-85
2022/06/27 00:10:04;;;;;;;8.30;5.90;;;18.10;99.90;;;;;;5040766;28;20045;-84
2022/06/27 00:12:30;;;;;;;8.65;6.40;;;18.10;99.90;;;;;;5011026;28;20040;-84
2022/06/27 00:14:57;;;;;;;8.95;5.90;;;18.00;99.90;;;;;;5021213;28;20043;-84
2022/06/27 00:17:22;;;;;;;9.63;8.43;;;18.00;99.90;;;;;;5027749;28;20049;-86
2022/06/27 00:19:48;;;;;;;9.52;6.57;;;18.00;99.90;;;;;;5028733;28;20106;-84
2022/06/27 00:22:14;;;;;;;9.82;7.60;;;17.90;99.90;;;;;;4995088;28;20076;-84
2022/06/27 00:24:39;;;;;;;9.18;7.38;;;17.70;99.90;;;;;;5025693;28;20096;-86
2022/06/27 00:27:05;;;;;;;8.65;6.93;;;17.70;99.90;;;;;;4998805;28;20030;-86
2022/06/27 00:29:31;;;;;;;9.80;7.57;;;17.70;99.90;;;;;;5038084;28;22297;-86
2022/06/27 00:31:57;;;;;;;8.05;6.57;;;17.80;99.90;;;;;;5025831;28;20045;-85
2022/06/27 00:34:23;;;;;;;9.15;7.20;;;17.70;99.90;;;;;;5042872;28;20040;-86
2022/06/27 00:36:49;;;;;;;7.82;6.65;;;17.70;99.90;;;;;;5025755;28;20043;-84
2022/06/27 00:39:14;;;;;;;11.73;7.20;;;17.70;99.90;;;;;;5013616;28;20041;-85
2022/06/27 00:41:40;;;;;;;5.88;4.57;;;17.70;99.90;;;;;;5006386;28;20492;-86
2022/06/27 00:44:06;;;;;;;10.63;6.88;;;17.70;99.90;;;;;;4996323;28;20032;-84
2022/06/27 00:46:32;;;;;;;11.23;7.57;;;17.70;99.90;;;;;;5007760;28;20060;-85
2022/06/27 00:48:58;;;;;;;8.43;6.35;;;17.70;99.90;;;;;;5026354;28;20049;-88
2022/06/27 00:51:24;;;;;;;10.85;7.80;;;17.70;99.90;;;;;;5010793;28;20032;-87
2022/06/27 00:53:52;;;;;;;9.75;6.13;;;17.80;99.90;;;;;;5019398;28;20037;-86
2022/06/27 00:56:18;;;;;;;7.57;6.60;;;17.80;99.90;;;;;;5038055;28;20041;-87
2022/06/27 00:58:43;;;;;;;8.43;5.80;;;17.80;99.90;;;;;;5008315;28;20044;-85
2022/06/27 01:01:10;;;;;;;11.75;7.68;;;17.80;99.90;;;;;;5022697;28;20048;-85
2022/06/27 01:03:36;;;;;;;9.82;7.22;;;17.80;99.90;;;;;;5037799;28;20037;-86
2022/06/27 01:06:03;;;;;;;6.53;5.55;;;17.80;99.90;;;;;;5022284;28;20523;-86
2022/06/27 01:08:29;;;;;;;9.85;7.97;;;17.70;99.90;;;;;;5055060;28;20036;-87
2022/06/27 01:10:55;;;;;;;9.80;7.80;;;17.70;99.90;;;;;;5022922;28;20049;-87
2022/06/27 01:13:21;;;;;;;10.38;7.00;;;17.70;99.90;;;;;;5042772;28;20508;-87
2022/06/27 01:15:47;;;;;;;8.98;8.07;;;17.70;99.90;;;;;;5026706;28;20520;-88
2022/06/27 01:18:13;;;;;;;9.98;7.90;;;17.60;99.90;;;;;;5014209;28;20118;-86
2022/06/27 01:20:43;;;;;;;9.20;7.38;;;17.60;99.90;;;;;;5031021;28;20045;-83
2022/06/27 01:23:10;;;;;;;7.50;6.13;;;18.10;99.90;;;;;;5040083;28;20038;-84
2022/06/27 01:25:36;;;;;;;9.13;6.53;;;17.60;99.90;;;;;;5012187;28;20051;-86
2022/06/27 01:28:03;;;;;;;6.38;5.70;;;17.70;99.90;;;;;;5006331;28;20653;-85
2022/06/27 01:30:29;;;;;;;8.50;6.05;;;17.70;99.90;;;;;;5023262;28;20409;-84
2022/06/27 01:32:55;;;;;;;9.32;7.45;;;17.70;99.90;;;;;;5038710;28;20037;-84
2022/06/27 01:35:20;;;;;;;8.23;7.18;;;17.70;99.90;;;;;;5010021;28;20073;-84
2022/06/27 01:37:46;;;;;;;9.13;6.07;;;17.70;99.90;;;;;;4989720;28;20068;-84
2022/06/27 01:40:14;;;;;;;7.22;6.53;;;17.70;99.90;;;;;;5024311;28;20041;-84
2022/06/27 01:42:40;;;;;;;8.98;7.68;;;17.60;99.90;;;;;;5025798;28;20044;-86
2022/06/27 01:45:07;;;;;;;7.82;6.72;;;17.60;99.90;;;;;;5031690;28;20037;-85
2022/06/27 01:47:33;;;;;;;7.28;6.13;;;17.60;99.90;;;;;;5050435;28;20156;-86
2022/06/27 01:49:58;;;;;;;9.88;8.20;;;17.60;99.90;;;;;;5052078;28;20041;-86
2022/06/27 01:52:25;;;;;;;6.68;5.28;;;17.60;99.90;;;;;;5040562;28;20044;-85
2022/06/27 01:54:51;;;;;;;7.68;6.50;;;17.60;99.90;;;;;;5020167;28;20029;-87
2022/06/27 01:57:17;;;;;;;9.20;8.32;;;17.70;99.90;;;;;;5019953;28;20048;-88
2022/06/27 01:59:44;;;;;;;11.88;9.05;;;17.70;99.90;;;;;;5022829;28;20084;-87
2022/06/27 02:02:09;;;;;;;10.77;8.85;;;17.60;99.90;;;;;;5040262;28;20519;-85
2022/06/27 02:04:37;;;;;;;8.70;7.78;;;17.50;99.90;;;;;;5006354;28;20100;-84
2022/06/27 02:07:04;;;;;;;8.85;7.35;;;17.40;99.90;;;;;;5052506;28;20124;-87
2022/06/27 02:09:30;;;;;;;10.38;9.32;;;17.30;99.90;;;;;;5038308;28;20064;-86
2022/06/27 02:11:56;;;;;;;9.15;6.65;;;17.30;99.90;;;;;;5034815;28;20040;-87
2022/06/27 02:14:24;;;;;;;6.50;5.70;;;17.30;99.90;;;;;;5020282;28;20481;-85
2022/06/27 02:16:49;;;;;;;9.43;7.45;;;17.60;99.90;;;;;;5036899;28;20063;-85
2022/06/27 02:19:18;;;;;;;8.98;8.07;;;17.40;99.90;;;;;;5021839;28;20037;-84
2022/06/27 02:21:45;;;;;;;10.68;8.27;;;17.40;99.90;;;;;;5052403;28;20134;-87
2022/06/27 02:24:12;;;;;;;8.40;5.75;;;17.40;99.90;;;;;;5039985;28;20505;-85
2022/06/27 02:26:38;;;;;;;7.47;6.40;;;17.40;99.90;;;;;;5025692;28;20044;-88
2022/06/27 02:29:04;;;;;;;9.23;6.53;;;17.50;99.90;;;;;;5043944;28;20123;-85
2022/06/27 02:31:30;;;;;;;9.90;8.90;;;17.50;99.90;;;;;;5044829;28;20205;-84
2022/06/27 02:33:57;;;;;;;9.20;7.22;;;17.50;99.90;;;;;;5037151;28;20162;-85
2022/06/27 02:36:31;;;;;;;9.65;7.55;;;17.60;99.90;;;;;;5035412;28;20414;-84
2022/06/27 02:38:59;;;;;;;9.32;7.72;;;17.50;99.90;;;;;;5044126;28;20044;-84
2022/06/27 02:41:28;;;;;;;11.77;7.57;;;17.50;99.90;;;;;;5029957;28;20041;-86
2022/06/27 02:44:18;;;;;;;7.10;5.88;;;17.50;99.90;;;;;;5064264;28;20102;-85
2022/06/27 02:46:44;;;;;;;8.55;6.10;;;17.50;99.90;;;;;;5026965;28;20059;-86
2022/06/27 02:49:10;;;;;;;9.90;6.95;;;17.50;99.90;;;;;;5014820;28;20045;-84
2022/06/27 02:52:19;;;;;;;11.88;8.65;;;17.50;99.90;;;;;;5013088;28;20040;-85
2022/06/27 02:55:07;;;;;;;10.55;7.75;;;17.50;99.90;;;;;;5022306;28;20083;-85
2022/06/27 02:57:48;;;;;;;10.60;8.23;;;17.40;99.90;;;;;;5026449;28;20428;-86
2022/06/27 03:00:14;;;;;;;11.50;7.22;;;17.40;99.90;;;;;;5038092;28;20048;-84
2022/06/27 03:02:45;;;;;;;11.10;9.18;;;17.40;99.90;;;;;;5001468;28;20036;-84
2022/06/27 03:05:11;;;;;;;10.30;7.13;;;17.50;99.90;;;;;;5044819;28;20055;-86
2022/06/27 03:07:39;;;;;;;8.93;8.00;;;17.50;99.90;;;;;;5025644;28;20168;-88
2022/06/27 03:10:05;;;;;;;12.23;7.95;;;17.50;99.90;;;;;;5030014;28;20048;-84
2022/06/27 03:12:31;;;;;;;9.55;8.55;;;17.50;99.90;;;;;;5030514;28;20165;-84
2022/06/27 03:14:57;;;;;;;6.78;6.05;;;17.50;99.90;;;;;;5040365;28;20147;-85
2022/06/27 03:17:23;;;;;;;9.25;8.23;;;17.50;99.90;;;;;;5030945;28;20037;-85
2022/06/27 03:19:50;;;;;;;6.95;6.18;;;17.50;99.90;;;;;;5032572;28;20060;-84
2022/06/27 03:22:16;;;;;;;10.82;9.07;;;17.70;99.90;;;;;;5015250;28;20037;-87
2022/06/27 03:24:43;;;;;;;15.43;10.38;;;17.50;99.90;;;;;;5042789;28;20052;-85
2022/06/27 03:27:12;;;;;;;11.85;9.25;;;17.40;99.90;;;;;;5030638;28;20064;-86
2022/06/27 03:29:38;;;;;;;12.55;8.75;;;17.50;99.90;;;;;;5022525;28;20064;-85
2022/06/27 03:32:04;;;;;;;14.63;10.68;;;17.40;99.90;;;;;;5026784;28;20037;-86
2022/06/27 03:34:30;;;;;;;12.52;10.27;;;17.30;99.90;;;;;;5044722;28;20662;-85
2022/06/27 03:36:56;;;;;;;14.00;10.20;;;17.30;99.90;;;;;;5030624;28;20318;-84
2022/06/27 03:39:23;;;;;;;9.50;8.52;;;17.30;99.90;;;;;;5014601;28;20037;-85
2022/06/27 03:41:49;;;;;;;11.52;10.18;;;17.30;99.90;;;;;;5026073;28;20041;-84
2022/06/27 03:44:15;;;;;;;8.80;7.40;;;17.30;99.90;;;;;;5026147;28;20090;-84
2022/06/27 03:46:41;;;;;;;9.07;8.13;;;17.30;99.90;;;;;;5010978;28;20478;-85
2022/06/27 03:51:52;;;;;;;9.90;8.88;;;17.40;99.90;;;;;;5034742;28;20654;-85
2022/06/27 03:54:18;;;;;;;8.90;8.00;;;17.40;99.90;;;;;;5025632;28;20049;-84
2022/06/27 03:56:44;;;;;;;11.30;9.20;;;17.40;99.90;;;;;;5008536;28;20094;-87
2022/06/27 03:59:10;;;;;;;13.20;9.82;;;17.40;99.90;;;;;;5022855;28;20052;-85
2022/06/27 04:01:35;;;;;;;10.48;8.10;;;17.40;99.90;;;;;;5024852;28;20037;-86
2022/06/27 04:04:02;;;;;;;8.93;6.85;;;17.40;99.90;;;;;;5039757;28;21546;-86
2022/06/27 04:06:28;;;;;;;9.30;7.25;;;17.40;99.90;;;;;;5036613;28;20043;-85
2022/06/27 04:08:53;;;;;;;10.15;9.05;;;17.50;99.90;;;;;;5030975;28;20489;-86
2022/06/27 04:11:19;;;;;;;11.45;9.52;;;17.50;99.90;;;;;;5014054;28;20052;-86
2022/06/27 04:13:45;;;;;;;11.02;8.43;;;17.50;99.90;;;;;;5041434;28;20037;-85
2022/06/27 04:16:11;;;;;;;10.13;8.07;;;17.50;99.90;;;;;;5012630;28;20044;-85
2022/06/27 04:18:36;;;;;;;13.73;9.63;;;17.50;99.90;;;;;;5009409;28;20444;-85
2022/06/27 04:21:03;;;;;;;8.68;7.38;;;17.50;99.90;;;;;;5011982;28;20040;-85
2022/06/27 04:23:28;;;;;;;11.13;8.80;;;17.50;99.90;;;;;;5032306;22;20045;-86
2022/06/27 04:25:54;;;;;;;10.25;9.20;;;17.50;99.90;;;;;;5043948;28;20024;-86
2022/06/27 04:28:20;;;;;;;11.63;10.43;;;17.50;99.90;;;;;;5049070;28;20123;-87
2022/06/27 04:30:46;;;;;;;13.68;11.60;;;17.50;99.90;;;;;;5030497;28;20032;-86
2022/06/27 04:33:12;;;;;;;13.82;11.90;;;17.40;99.90;;;;;;5060015;28;20127;-86
2022/06/27 04:35:40;;;;;;;12.30;11.00;;;17.50;99.90;;;;;;5035070;28;20119;-87
2022/06/27 04:38:06;;;;;;;11.52;10.32;;;17.50;99.90;;;;;;5049243;28;20051;-87
2022/06/27 04:40:33;;;;;;;12.80;11.52;;;17.40;99.90;;;;;;5053139;28;20044;-88
2022/06/27 04:42:59;;;;;;;12.50;10.02;;;17.50;99.90;;;;;;5044548;28;20039;-88
2022/06/27 04:45:26;;;;;;;16.63;13.48;;;17.40;99.90;;;;;;5031675;28;20047;-87
2022/06/27 04:47:52;;;;;;;15.18;13.60;;;17.50;99.90;;;;;;5058904;28;20059;-88
2022/06/27 04:50:21;;;;;;;14.95;13.35;;;17.50;99.90;;;;;;5023971;28;20484;-88
2022/06/27 04:52:48;;;;;;;18.90;14.45;;;17.50;99.90;;;;;;5025425;28;20115;-87
2022/06/27 04:55:15;;;;;;;17.17;15.32;;;17.50;99.90;;;;;;5052588;28;20044;-86
2022/06/27 04:57:43;;;;;;;15.38;13.05;;;17.60;99.90;;;;;;5050344;28;20071;-88
2022/06/27 05:00:11;;;;;;;12.57;11.27;;;17.50;99.90;;;;;;5045883;28;20082;-87
2022/06/27 05:02:37;;;;;;;17.90;15.52;;;17.60;99.90;;;;;;5041447;28;20070;-87
2022/06/27 05:05:04;;;;;;;15.48;12.48;;;17.60;99.90;;;;;;5048490;28;20599;-86
2022/06/27 05:07:30;;;;;;;15.38;13.57;;;17.60;99.90;;;;;;5051496;28;20031;-86
2022/06/27 05:09:57;;;;;;;13.82;11.65;;;17.60;99.90;;;;;;5049558;28;20041;-87
2022/06/27 05:12:24;;;;;;;15.93;14.27;;;17.70;99.90;;;;;;5045826;28;20032;-86
2022/06/27 05:14:53;;;;;;;16.02;14.32;;;17.60;99.90;;;;;;5044946;28;20582;-86
2022/06/27 05:17:20;;;;;;;14.63;13.13;;;17.60;99.90;;;;;;5041227;28;20582;-87
2022/06/27 05:19:46;;;;;;;15.30;13.30;;;17.70;99.90;;;;;;5051590;28;20118;-87
2022/06/27 05:22:24;;;;;;;17.05;15.25;;;17.70;99.90;;;;;;5008951;28;20123;-88
2022/06/27 05:24:52;;;;;;;14.90;12.75;;;17.80;99.90;;;;;;5050910;28;20618;-88
2022/06/27 05:28:12;;;;;;;17.83;15.02;;;17.80;99.90;;;;;;5037633;28;20036;-85
2022/06/27 05:30:38;;;;;;;18.75;15.60;;;17.90;99.90;;;;;;4971520;28;20046;-86
2022/06/27 05:33:04;;;;;;;19.05;16.90;;;18.00;99.90;;;;;;5026562;28;20036;-86
2022/06/27 05:35:30;;;;;;;15.63;13.93;;;17.90;99.90;;;;;;5024751;28;20040;-86
2022/06/27 05:37:56;;;;;;;17.88;16.08;;;17.90;99.90;;;;;;5041767;28;20048;-85
2022/06/27 05:40:22;;;;;;;20.63;17.85;;;18.00;99.90;;;;;;5038754;28;20165;-85
2022/06/27 05:42:48;;;;;;;18.30;16.10;;;18.10;99.90;;;;;;5054890;28;20040;-84
2022/06/27 05:45:15;;;;;;;22.25;17.95;;;18.10;99.90;;;;;;5051766;28;20085;-84
2022/06/27 05:47:42;;;;;;;18.23;16.33;;;18.10;99.90;;;;;;5037304;28;20128;-84
2022/06/27 05:50:08;;;;;;;19.10;17.25;;;18.10;99.90;;;;;;5041445;28;20511;-85
2022/06/27 05:52:34;;;;;;;22.48;19.65;;;18.10;99.90;;;;;;5074664;28;20031;-84
2022/06/27 05:55:16;;;;;;;20.08;17.95;;;18.20;99.90;;;;;;5068820;28;20062;-84
2022/06/27 05:57:42;;;;;;;21.30;19.08;;;18.40;99.90;;;;;;5074575;28;20067;-89
2022/06/27 06:00:08;;;;;;;25.77;19.77;;;18.30;99.90;;;;;;5035922;28;20500;-84
2022/06/27 06:02:34;;;;;;;20.52;18.42;;;18.30;99.90;;;;;;5044602;28;20040;-85
2022/06/27 06:05:00;;;;;;;24.00;21.50;;;18.40;99.90;;;;;;5020260;28;20056;-88
2022/06/27 06:07:25;;;;;;;21.20;18.90;;;18.40;99.90;;;;;;5038972;28;20055;-87
2022/06/27 06:09:52;;;;;;;19.92;17.88;;;18.40;99.90;;;;;;5037979;28;20059;-87
2022/06/27 06:12:18;;;;;;;23.23;20.75;;;18.40;99.90;;;;;;5037452;28;20070;-86
2022/06/27 06:14:46;;;;;;;24.50;21.77;;;19.00;99.90;;;;;;5035172;28;20089;-88
2022/06/27 06:17:12;;;;;;;21.00;18.83;;;18.30;99.90;;;;;;5036435;28;20050;-86
2022/06/27 06:19:38;;;;;;;23.35;20.15;;;18.20;99.90;;;;;;5022554;28;20039;-90
2022/06/27 06:22:05;;;;;;;24.45;21.92;;;18.30;99.90;;;;;;5067128;28;20231;-88
2022/06/27 06:24:34;;;;;;;24.55;21.63;;;18.30;99.90;;;;;;5065639;28;20043;-88
2022/06/27 06:27:00;;;;;;;25.45;21.42;;;18.30;99.90;;;;;;5047870;28;20044;-88
2022/06/27 06:29:26;;;;;;;20.65;18.60;;;18.30;99.90;;;;;;5053919;28;20047;-87
2022/06/27 06:32:11;;;;;;;23.55;21.02;;;18.30;99.90;;;;;;5050541;28;20499;-88
2022/06/27 06:34:37;;;;;;;21.02;18.70;;;18.30;99.90;;;;;;5047186;28;20159;-85
2022/06/27 06:37:05;;;;;;;24.95;19.08;;;18.40;99.90;;;;;;5022976;28;20055;-86
2022/06/27 06:39:30;;;;;;;20.60;18.63;;;18.30;99.90;;;;;;5048426;28;20046;-87
2022/06/27 06:41:57;;;;;;;19.60;17.52;;;18.40;99.90;;;;;;5035350;28;20044;-83
2022/06/27 06:44:24;;;;;;;20.80;18.70;;;18.50;99.90;;;;;;5044254;28;20411;-86
2022/06/27 06:46:51;;;;;;;20.90;18.80;;;18.50;99.90;;;;;;5033416;28;20138;-88
2022/06/27 06:49:16;;;;;;;19.52;17.13;;;18.60;99.90;;;;;;5068891;28;20040;-84
2022/06/27 06:51:42;;;;;;;20.33;17.60;;;18.60;99.90;;;;;;5052584;28;20035;-86
2022/06/27 06:54:12;;;;;;;18.80;16.90;;;18.60;99.90;;;;;;5015537;28;20214;-88
2022/06/27 06:56:41;;;;;;;19.90;17.88;;;18.70;99.90;;;;;;5059351;28;20434;-83
2022/06/27 06:59:17;;;;;;;19.33;17.25;;;18.70;99.90;;;;;;5063977;28;20044;-85
2022/06/27 07:01:43;;;;;;;21.13;18.17;;;18.80;99.90;;;;;;5047408;28;20040;-88
2022/06/27 07:04:29;;;;;;;20.90;17.83;;;18.80;99.90;;;;;;5076386;28;20500;-86
2022/06/27 07:06:56;;;;;;;22.13;19.83;;;18.80;99.90;;;;;;5014719;28;20136;-86
2022/06/27 07:09:22;;;;;;;20.80;18.60;;;18.80;99.90;;;;;;5036416;28;20036;-86
2022/06/27 07:11:47;;;;;;;18.83;16.90;;;19.10;99.90;;;;;;5049681;28;20037;-85
2022/06/27 07:14:15;;;;;;;21.23;18.77;;;18.90;99.90;;;;;;5034453;28;20024;-85
2022/06/27 07:16:42;;;;;;;19.92;17.05;;;18.80;99.90;;;;;;5056609;28;20028;-85
2022/06/27 07:19:09;;;;;;;18.65;16.70;;;18.80;99.90;;;;;;5050440;28;20051;-83
2022/06/27 07:21:35;;;;;;;20.85;17.80;;;18.60;99.90;;;;;;5052646;28;20033;-85
2022/06/27 07:24:05;;;;;;;21.90;19.05;;;18.90;99.90;;;;;;5054766;28;20063;-84
2022/06/27 07:26:32;;;;;;;19.70;17.70;;;18.90;99.90;;;;;;5049884;28;20128;-86
2022/06/27 07:28:59;;;;;;;20.35;18.25;;;18.90;99.90;;;;;;5052410;28;20457;-87
2022/06/27 07:31:25;;;;;;;18.42;16.63;;;18.90;99.90;;;;;;5037301;28;20098;-87
2022/06/27 07:33:54;;;;;;;19.30;17.27;;;18.90;99.90;;;;;;5066648;28;20036;-88
2022/06/27 07:36:20;;;;;;;20.60;18.55;;;19.10;99.90;;;;;;5051597;28;20488;-87
2022/06/27 07:38:49;;;;;;;18.92;16.90;;;18.90;99.90;;;;;;5030813;28;20123;-86
2022/06/27 07:41:16;;;;;;;19.35;17.23;;;18.90;99.90;;;;;;5060337;28;20035;-87
2022/06/27 07:47:13;;;;;;;20.05;16.10;;;18.90;99.90;;;;;;5056504;28;20303;-88
2022/06/27 07:49:39;;;;;;;18.65;16.73;;;18.80;99.90;;;;;;5049815;28;20500;-88
2022/06/27 07:52:06;;;;;;;18.17;16.38;;;18.80;99.90;;;;;;5051443;28;20046;-90
2022/06/27 07:54:38;;;;;;;19.63;17.20;;;18.90;99.90;;;;;;5047836;28;20145;-89
2022/06/27 07:57:05;;;;;;;16.95;15.23;;;18.90;99.90;;;;;;5050423;28;20036;-88
2022/06/27 07:59:32;;;;;;;18.13;16.35;;;18.90;99.90;;;;;;5053588;28;20036;-88
2022/06/27 08:01:58;;;;;;;18.73;16.75;;;18.90;99.90;;;;;;5068118;28;20040;-88
2022/06/27 08:04:24;;;;;;;19.83;17.92;;;19.00;99.90;;;;;;5051464;28;20204;-88
2022/06/27 08:07:28;;;;;;;18.13;16.25;;;18.90;99.90;;;;;;5050187;28;20120;-88
2022/06/27 08:09:55;;;;;;;17.23;15.38;;;18.90;99.90;;;;;;5028853;28;20168;-88
2022/06/27 08:12:34;;;;;;;17.85;16.05;;;19.00;99.90;;;;;;5062620;28;20043;-86
2022/06/27 08:15:00;;;;;;;20.40;17.67;;;19.00;99.90;;;;;;5035531;28;20199;-88
2022/06/27 08:17:26;;;;;;;17.83;15.90;;;19.10;99.90;;;;;;5046352;28;20096;-87
2022/06/27 08:20:01;;;;;;;17.17;15.38;;;19.20;99.90;;;;;;5049029;28;20036;-85
2022/06/27 08:23:07;;;;;;;21.25;16.95;;;19.30;99.90;;;;;;5068190;28;20055;-83
2022/06/27 08:25:38;;;;;;;16.48;14.88;;;19.30;99.90;;;;;;4985115;28;20110;-83
2022/06/27 08:28:05;;;;;;;17.75;15.82;;;19.20;99.90;;;;;;4960636;28;20042;-82
2022/06/27 08:30:31;;;;;;;17.27;15.57;;;19.50;99.90;;;;;;4984017;28;20085;-83
2022/06/27 08:33:00;;;;;;;13.90;12.50;;;19.50;99.90;;;;;;4985234;28;20049;-83
2022/06/27 08:35:26;;;;;;;16.88;15.15;;;19.60;99.90;;;;;;5031661;28;20067;-83
2022/06/27 08:37:54;;;;;;;17.95;14.30;;;19.60;99.90;;;;;;5076266;28;20183;-82
2022/06/27 08:40:20;;;;;;;14.02;12.63;;;19.60;99.90;;;;;;5088974;28;20051;-83
2022/06/27 08:42:47;;;;;;;15.02;13.52;;;19.60;99.90;;;;;;5059128;28;20420;-84
2022/06/27 08:45:17;;;;;;;15.35;13.93;;;19.60;99.90;;;;;;5075787;28;20404;-88
2022/06/27 08:47:46;;;;;;;15.95;14.32;;;19.60;99.90;;;;;;5071977;28;20417;-87
2022/06/27 08:50:14;;;;;;;14.48;13.07;;;19.60;99.90;;;;;;5034754;28;20040;-87
2022/06/27 08:52:40;;;;;;;15.63;13.07;;;19.70;99.90;;;;;;5050369;28;20032;-86
2022/06/27 08:55:08;;;;;;;18.27;15.80;;;19.70;99.90;;;;;;5057394;28;20038;-87
2022/06/27 08:57:41;;;;;;;11.82;10.73;;;19.80;99.90;;;;;;5065779;28;20039;-86
2022/06/27 09:00:12;;;;;;;13.65;12.23;;;19.80;99.90;;;;;;5074380;28;20048;-86
2022/06/27 09:02:43;;;;;;;15.32;13.77;;;19.90;99.90;;;;;;5036817;28;20040;-89
2022/06/27 09:05:24;;;;;;;14.18;12.60;;;20.00;99.90;;;;;;5052412;28;20055;-88
2022/06/27 09:07:59;;;;;;;12.70;11.30;;;20.20;99.90;;;;;;5057870;28;20036;-83
2022/06/27 09:10:31;;;;;;;16.77;13.68;;;20.30;99.90;;;;;;5044289;28;22059;-84
2022/06/27 09:13:08;;;;;;;13.90;12.52;;;20.00;99.90;;;;;;5060249;28;20060;-88
2022/06/27 09:16:06;;;;;;;14.18;11.95;;;20.50;99.90;;;;;;5046313;28;20044;-84
2022/06/27 09:18:37;;;;;;;13.98;11.80;;;20.60;99.90;;;;;;5034151;28;20041;-85
2022/06/27 09:21:11;;;;;;;12.68;11.23;;;20.70;99.90;;;;;;5052445;28;20415;-86
2022/06/27 09:24:01;;;;;;;14.18;11.05;;;20.90;99.90;;;;;;5040000;22;20055;-56
2022/06/27 09:26:32;;;;;;;11.88;10.77;;;21.00;99.90;;;;;;5071137;28;20596;-55
2022/06/27 09:29:15;;;;;;;11.65;10.48;;;21.10;99.90;;;;;;5073942;28;20123;-53
2022/06/27 09:31:42;;;;;;;11.45;10.13;;;21.10;99.90;;;;;;5059680;28;20033;-56
2022/06/27 09:34:23;;;;;;;14.23;10.93;;;21.10;99.90;;;;;;5062530;28;20040;-53
2022/06/27 09:37:00;;;;;;;12.38;10.40;;;21.10;99.90;;;;;;5053455;28;20041;-52
2022/06/27 09:39:36;;;;;;;12.05;9.50;;;21.20;99.90;;;;;;5067196;28;20067;-56
2022/06/27 09:42:11;;;;;;;10.55;9.55;;;21.10;99.90;;;;;;5085794;28;20529;-53
2022/06/27 09:44:39;;;;;;;10.38;9.32;;;21.20;99.90;;;;;;5067841;28;20044;-54
2022/06/27 09:47:16;;;;;;;9.82;8.82;;;21.20;99.90;;;;;;5077946;28;20041;-52
2022/06/27 09:49:49;;;;;;;13.07;9.48;;;21.10;99.90;;;;;;5062195;28;20075;-57
2022/06/27 09:52:21;;;;;;;11.88;9.68;;;21.20;99.90;;;;;;5076159;28;20464;-56
2022/06/27 09:54:49;;;;;;;12.10;9.57;;;21.20;99.90;;;;;;5060195;28;20039;-56
2022/06/27 09:57:16;;;;;;;10.73;8.88;;;21.30;99.90;;;;;;5077868;28;20526;-55
2022/06/27 09:59:48;;;;;;;9.68;8.68;;;21.30;99.90;;;;;;5066961;28;20040;-56
2022/06/27 10:02:16;;;;;;;10.10;8.40;;;21.30;99.90;;;;;;5065911;28;20044;-57
2022/06/27 10:04:45;;;;;;;12.25;8.23;;;21.10;99.90;;;;;;5069276;28;20367;-57
2022/06/27 10:07:13;;;;;;;8.82;8.02;;;21.10;99.90;;;;;;5071303;28;20047;-57
2022/06/27 10:09:40;;;;;;;10.63;7.95;;;21.00;99.90;;;;;;5047097;28;20131;-55
2022/06/27 10:12:35;;;;;;;9.63;8.40;;;21.10;99.90;;;;;;5090630;28;20131;-57
2022/06/27 10:15:09;;;;;;;9.23;8.00;;;21.10;99.90;;;;;;5082559;28;20040;-56
2022/06/27 10:17:49;;;;;;;9.57;8.02;;;21.10;99.90;;;;;;5064991;28;20049;-57
2022/06/27 10:20:20;;;;;;;11.15;9.10;;;21.10;99.90;;;;;;5068262;28;20094;-55
2022/06/27 10:23:09;;;;;;;8.88;8.07;;;21.00;99.90;;;;;;5056843;28;20051;-57
2022/06/27 10:25:44;;;;;;;12.52;9.27;;;21.00;99.90;;;;;;5012120;22;20059;-81
2022/06/27 10:28:13;;;;;;;11.00;7.78;;;21.00;99.90;;;;;;4966640;28;20442;-81
2022/06/27 10:30:55;;;;;;;8.52;7.03;;;21.00;99.90;;;;;;4973756;28;20034;-82
2022/06/27 10:33:21;;;;;;;7.88;7.07;;;21.10;99.90;;;;;;4971466;28;20455;-80
2022/06/27 10:36:13;;;;;;;7.53;6.35;;;21.10;99.90;;;;;;4980465;28;20060;-79
2022/06/27 10:38:39;;;;;;;9.88;7.32;;;21.20;99.90;;;;;;4984237;28;20038;-81
2022/06/27 10:41:07;;;;;;;8.73;7.05;;;21.20;99.90;;;;;;4964717;28;20107;-80
2022/06/27 10:43:36;;;;;;;9.40;7.65;;;21.30;99.90;;;;;;4966793;28;20070;-80
2022/06/27 10:46:27;;;;;;;8.90;6.10;;;21.40;99.90;;;;;;4986560;28;20065;-83
2022/06/27 10:48:58;;;;;;;8.63;7.80;;;21.40;99.90;;;;;;4960354;28;20122;-84
2022/06/27 10:51:33;;;;;;;9.43;7.22;;;21.30;99.90;;;;;;4976975;28;20046;-83
2022/06/27 10:53:58;;;;;;;7.10;6.38;;;21.20;99.90;;;;;;4966354;28;20094;-81
2022/06/27 10:56:31;;;;;;;8.18;6.90;;;21.10;99.90;;;;;;4964559;28;20121;-84
2022/06/27 10:58:59;;;;;;;9.00;7.53;;;21.10;99.90;;;;;;4980490;28;20046;-82
2022/06/27 11:01:25;;;;;;;8.30;6.47;;;21.10;99.90;;;;;;4969746;28;20069;-83
2022/06/27 11:03:51;;;;;;;8.57;6.45;;;21.10;99.90;;;;;;4985876;28;20042;-83
2022/06/27 11:06:17;;;;;;;9.77;6.72;;;21.00;99.90;;;;;;5005385;28;20050;-84
2022/06/27 11:08:49;;;;;;;8.40;7.03;;;21.00;99.90;;;;;;4964099;28;20043;-84
2022/06/27 11:11:22;;;;;;;8.02;7.15;;;21.00;99.90;;;;;;4975625;28;20129;-86
2022/06/27 11:13:54;;;;;;;7.93;5.60;;;21.10;99.90;;;;;;4966470;28;20048;-80
2022/06/27 11:16:25;;;;;;;7.57;6.40;;;21.10;99.90;;;;;;4967382;28;20423;-81
2022/06/27 11:19:00;;;;;;;6.97;6.13;;;21.10;99.90;;;;;;4986069;28;20058;-80
2022/06/27 11:21:34;;;;;;;10.52;6.20;;;21.20;99.90;;;;;;5002765;28;20103;-81
2022/06/27 11:24:02;;;;;;;11.65;7.32;;;21.20;99.90;;;;;;4990856;28;20051;-82
2022/06/27 11:26:37;;;;;;;8.23;6.93;;;21.20;99.90;;;;;;4986360;28;20043;-80
2022/06/27 11:32:03;;;;;;;11.80;7.90;;;21.20;99.90;;;;;;4986789;28;20068;-80
2022/06/27 11:34:31;;;;;;;10.27;7.80;;;21.20;99.90;;;;;;4980791;28;20038;-80
2022/06/27 11:37:00;;;;;;;8.77;7.50;;;21.20;99.90;;;;;;4985461;28;20050;-80
2022/06/27 11:39:30;;;;;;;10.90;8.07;;;21.20;99.90;;;;;;5058444;28;20034;-82
2022/06/27 11:41:59;;;;;;;10.52;7.57;;;21.30;99.90;;;;;;4949159;28;20103;-80
2022/06/27 11:44:25;;;;;;;7.55;6.50;;;21.20;99.90;;;;;;4987997;28;20069;-80
2022/06/27 11:46:53;;;;;;;10.50;7.40;;;21.30;99.90;;;;;;4986862;28;20035;-80
2022/06/27 11:49:30;;;;;;;6.53;5.93;;;21.40;99.90;;;;;;4984753;28;20095;-80
2022/06/27 11:52:02;;;;;;;7.22;5.50;;;21.60;99.90;;;;;;5007256;28;20049;-80
2022/06/27 11:54:43;;;;;;;8.48;6.93;;;21.70;99.90;;;;;;4977371;28;20094;-79
2022/06/27 11:57:27;;;;;;;6.53;5.80;;;21.80;99.90;;;;;;4997619;28;20078;-80
2022/06/27 11:59:55;;;;;;;6.97;5.70;;;21.80;99.90;;;;;;4995635;28;20043;-80
2022/06/27 12:02:27;;;;;;;9.20;6.72;;;21.80;99.90;;;;;;4987963;28;20055;-81
2022/06/27 12:05:09;;;;;;;8.70;5.95;;;21.80;99.90;;;;;;4984900;28;20045;-80
2022/06/27 12:08:06;;;;;;;8.20;5.18;;;21.70;99.90;;;;;;4977585;28;20036;-82
2022/06/27 12:10:44;;;;;;;5.38;3.75;;;21.30;99.90;;;;;;4966485;28;20583;-81
2022/06/27 12:13:16;;;;;;;10.55;6.13;;;21.30;99.90;;;;;;4974741;28;20038;-82
2022/06/27 12:15:44;;;;;;;8.15;6.75;;;21.30;99.90;;;;;;4970568;28;20147;-81
2022/06/27 12:18:12;;;;;;;7.35;6.50;;;21.40;99.90;;;;;;4959677;28;20471;-80
2022/06/27 12:20:41;;;;;;;7.18;6.00;;;21.40;99.90;;;;;;4975792;28;20046;-80
2022/06/27 12:23:07;;;;;;;6.95;5.13;;;21.50;99.90;;;;;;4962581;28;20048;-80
2022/06/27 12:25:36;;;;;;;7.45;5.88;;;21.60;99.90;;;;;;4972339;28;20042;-82
2022/06/27 12:28:05;;;;;;;7.68;5.97;;;21.80;99.90;;;;;;4962108;28;20136;-80
2022/06/27 12:30:31;;;;;;;9.88;5.30;;;21.80;99.90;;;;;;4973810;28;20092;-80
2022/06/27 12:32:57;;;;;;;49.10;19.10;;;21.90;99.90;;;;;;4956051;28;20042;-81
2022/06/27 12:35:22;;;;;;;41.63;13.48;;;21.90;99.90;;;;;;4973836;28;20053;-81
2022/06/27 12:37:49;;;;;;;47.33;18.35;;;21.90;99.90;;;;;;5043365;28;20383;-83
2022/06/27 12:40:14;;;;;;;9.23;5.80;;;22.00;99.90;;;;;;4963714;28;20053;-82
2022/06/27 12:42:40;;;;;;;8.63;5.60;;;22.00;99.90;;;;;;4965496;28;20050;-81
2022/06/27 12:45:06;;;;;;;7.40;5.47;;;22.00;99.90;;;;;;4977578;28;20046;-81
2022/06/27 12:47:32;;;;;;;6.72;5.25;;;22.00;99.90;;;;;;4944305;28;20039;-80
2022/06/27 12:49:58;;;;;;;9.90;5.78;;;21.90;99.90;;;;;;4970910;28;20107;-80
2022/06/27 12:52:24;;;;;;;8.38;5.93;;;22.00;99.90;;;;;;4979686;28;20050;-79
2022/06/27 12:54:49;;;;;;;6.90;4.93;;;22.10;99.90;;;;;;4978090;28;20131;-83